createdAt,value
2018-05-07T00:01:27.903Z,13.72
2018-05-07T00:04:00.428Z,13.71
2018-05-07T00:06:32.927Z,13.65
2018-05-07T00:09:05.482Z,13.61
2018-05-07T00:11:38.059Z,13.59
2018-05-07T00:14:10.532Z,13.59
2018-05-07T00:16:43.047Z,13.51
2018-05-07T00:19:15.606Z,13.50
2018-05-07T00:21:48.095Z,13.46
2018-05-07T00:24:20.628Z,13.46
2018-05-07T00:26:53.127Z,13.44
2018-05-07T00:29:25.652Z,13.38
2018-05-07T00:31:58.160Z,13.37
2018-05-07T00:34:30.681Z,13.33
2018-05-07T00:37:03.180Z,13.28
2018-05-07T00:39:35.702Z,13.23
2018-05-07T00:42:08.197Z,13.22
2018-05-07T00:44:40.721Z,13.20
2018-05-07T00:47:13.225Z,13.16
2018-05-07T00:49:45.752Z,13.13
2018-05-07T00:52:18.254Z,13.10
2018-05-07T00:55:02.760Z,13.08
2018-05-07T00:57:35.279Z,13.04
2018-05-07T01:00:07.777Z,12.97
2018-05-07T01:02:40.295Z,12.92
2018-05-07T01:05:12.797Z,12.88
2018-05-07T01:07:47.077Z,12.83
2018-05-07T01:10:19.591Z,12.81
2018-05-07T01:12:52.143Z,12.82
2018-05-07T01:15:24.696Z,12.78
2018-05-07T01:17:57.207Z,12.76
2018-05-07T01:20:29.708Z,12.76
2018-05-07T01:23:02.231Z,12.73
2018-05-07T01:25:34.732Z,12.69
2018-05-07T01:28:07.248Z,12.52
2018-05-07T01:30:39.751Z,12.48
2018-05-07T01:33:12.270Z,12.47
2018-05-07T01:35:44.776Z,12.44
2018-05-07T01:38:17.935Z,12.41
2018-05-07T01:40:50.443Z,12.37
2018-05-07T01:43:22.961Z,12.33
2018-05-07T01:45:55.491Z,12.30
2018-05-07T01:48:28.017Z,12.28
2018-05-07T01:51:00.526Z,12.26
2018-05-07T01:53:33.052Z,12.21
2018-05-07T01:56:05.556Z,12.17
2018-05-07T01:58:38.083Z,12.14
2018-05-07T02:01:10.577Z,12.09
2018-05-07T02:03:43.133Z,12.07
2018-05-07T02:06:15.666Z,12.09
2018-05-07T02:08:48.192Z,12.06
2018-05-07T02:11:20.707Z,12.04
2018-05-07T02:13:53.241Z,12.02
2018-05-07T02:16:25.747Z,12.00
2018-05-07T02:18:58.266Z,11.98
2018-05-07T02:21:30.764Z,11.92
2018-05-07T02:24:03.284Z,11.90
2018-05-07T02:26:35.788Z,11.85
2018-05-07T02:29:08.306Z,11.85
2018-05-07T02:31:40.810Z,11.85
2018-05-07T02:34:13.332Z,11.83
2018-05-07T02:36:46.333Z,11.73
2018-05-07T02:39:18.859Z,11.63
2018-05-07T02:41:51.372Z,11.55
2018-05-07T02:44:23.894Z,11.53
2018-05-07T02:46:56.403Z,11.51
2018-05-07T02:49:28.922Z,11.50
2018-05-07T02:52:01.420Z,11.48
2018-05-07T02:54:33.949Z,11.46
2018-05-07T02:57:06.436Z,11.42
2018-05-07T02:59:38.986Z,11.40
2018-05-07T03:02:11.485Z,11.38
2018-05-07T03:04:44.021Z,11.36
2018-05-07T03:07:16.765Z,11.31
2018-05-07T03:09:49.280Z,11.28
2018-05-07T03:12:21.812Z,11.25
2018-05-07T03:14:54.330Z,11.21
2018-05-07T03:17:26.903Z,11.19
2018-05-07T03:19:59.393Z,11.17
2018-05-07T03:22:31.891Z,11.14
2018-05-07T03:25:04.404Z,11.15
2018-05-07T03:27:36.906Z,11.14
2018-05-07T03:30:09.421Z,11.13
2018-05-07T03:32:41.920Z,11.09
2018-05-07T03:35:14.454Z,11.05
2018-05-07T03:37:47.591Z,11.07
2018-05-07T03:40:20.116Z,11.03
2018-05-07T03:45:31.541Z,10.96
2018-05-07T03:48:04.043Z,10.90
2018-05-07T03:50:36.569Z,10.85
2018-05-07T03:53:09.072Z,10.87
2018-05-07T03:55:41.599Z,10.77
2018-05-07T03:58:14.106Z,10.53
2018-05-07T04:00:46.627Z,10.24
2018-05-07T04:03:19.125Z,10.30
2018-05-07T04:05:51.645Z,10.40
2018-05-07T04:08:24.147Z,10.49
2018-05-07T04:10:56.692Z,10.56
2018-05-07T04:13:29.199Z,10.59
2018-05-07T04:16:01.752Z,10.63
2018-05-07T04:18:46.800Z,10.67
2018-05-07T04:21:19.305Z,10.73
2018-05-07T04:24:03.624Z,10.77
2018-05-07T04:26:36.125Z,10.84
2018-05-07T04:29:08.643Z,10.92
2018-05-07T04:31:41.153Z,10.97
2018-05-07T04:34:13.681Z,11.06
2018-05-07T04:36:47.108Z,11.26
2018-05-07T04:39:19.637Z,12.00
2018-05-07T04:41:52.133Z,13.25
2018-05-07T04:44:24.657Z,14.12
2018-05-07T04:46:57.168Z,14.48
2018-05-07T04:49:29.693Z,14.26
2018-05-07T04:52:02.195Z,13.64
2018-05-07T04:54:34.721Z,13.20
2018-05-07T04:57:07.220Z,13.26
2018-05-07T04:59:39.745Z,13.90
2018-05-07T05:02:12.265Z,14.59
2018-05-07T05:04:44.790Z,14.89
2018-05-07T05:07:18.040Z,14.95
2018-05-07T05:09:50.571Z,14.73
2018-05-07T05:12:23.080Z,14.54
2018-05-07T05:14:55.616Z,14.37
2018-05-07T05:17:28.126Z,14.31
2018-05-07T05:20:00.640Z,14.36
2018-05-07T05:22:33.146Z,14.44
2018-05-07T05:25:05.667Z,14.56
2018-05-07T05:27:38.174Z,14.72
2018-05-07T05:30:10.697Z,14.97
2018-05-07T05:32:43.206Z,15.15
2018-05-07T05:35:15.794Z,15.40
2018-05-07T05:37:48.301Z,15.56
2018-05-07T05:40:20.824Z,15.66
2018-05-07T05:42:53.325Z,15.85
2018-05-07T05:45:25.866Z,16.14
2018-05-07T05:47:58.371Z,16.26
2018-05-07T05:50:30.897Z,16.28
2018-05-07T05:53:03.399Z,16.36
2018-05-07T05:55:36.116Z,16.42
2018-05-07T05:58:08.620Z,16.62
2018-05-07T06:00:41.140Z,16.50
2018-05-07T06:03:13.653Z,16.60
2018-05-07T06:05:46.734Z,16.67
2018-05-07T06:08:19.239Z,16.94
2018-05-07T06:10:51.768Z,17.01
2018-05-07T06:13:24.279Z,17.15
2018-05-07T06:15:56.795Z,17.39
2018-05-07T06:18:29.291Z,17.46
2018-05-07T06:21:01.813Z,17.62
2018-05-07T06:23:34.325Z,17.86
2018-05-07T06:26:06.858Z,18.12
2018-05-07T06:28:39.358Z,18.31
2018-05-07T06:31:11.880Z,18.44
2018-05-07T06:33:44.394Z,18.73
2018-05-07T06:36:17.473Z,18.95
2018-05-07T06:38:49.991Z,18.84
2018-05-07T06:41:22.537Z,19.07
2018-05-07T06:43:55.067Z,19.20
2018-05-07T06:46:27.615Z,19.44
2018-05-07T06:49:00.141Z,19.43
2018-05-07T06:51:32.664Z,19.74
2018-05-07T06:54:05.166Z,19.79
2018-05-07T06:56:37.688Z,19.81
2018-05-07T06:59:10.179Z,20.06
2018-05-07T07:01:42.701Z,20.19
2018-05-07T07:04:15.200Z,20.12
2018-05-07T07:06:48.649Z,20.25
2018-05-07T07:09:21.166Z,20.37
2018-05-07T07:11:53.699Z,20.35
2018-05-07T07:14:26.197Z,20.28
2018-05-07T07:16:58.729Z,20.69
2018-05-07T07:19:31.236Z,20.50
2018-05-07T07:22:04.384Z,20.58
2018-05-07T07:24:36.897Z,20.76
2018-05-07T07:27:09.430Z,20.71
2018-05-07T07:29:41.933Z,21.01
2018-05-07T07:32:14.461Z,21.29
2018-05-07T07:34:47.684Z,21.49
2018-05-07T07:37:20.204Z,21.28
2018-05-07T07:39:52.713Z,21.66
2018-05-07T07:42:25.247Z,21.70
2018-05-07T07:44:57.742Z,21.78
2018-05-07T07:47:30.262Z,21.89
2018-05-07T07:50:02.773Z,22.30
2018-05-07T07:52:35.301Z,22.02
2018-05-07T07:55:07.804Z,22.39
2018-05-07T07:57:40.351Z,22.12
2018-05-07T08:00:12.869Z,22.19
2018-05-07T08:02:45.976Z,22.59
2018-05-07T08:05:18.505Z,22.84
2018-05-07T08:07:51.012Z,22.94
2018-05-07T08:10:23.546Z,23.07
2018-05-07T08:12:56.054Z,23.11
2018-05-07T08:15:28.581Z,23.38
2018-05-07T08:18:01.083Z,23.29
2018-05-07T08:20:33.590Z,23.27
2018-05-07T08:23:06.096Z,23.07
2018-05-07T08:25:38.635Z,23.05
2018-05-07T08:28:11.136Z,23.75
2018-05-07T08:30:43.651Z,24.22
2018-05-07T08:33:16.507Z,23.74
2018-05-07T08:35:49.028Z,23.43
2018-05-07T08:38:21.523Z,23.75
2018-05-07T08:40:54.047Z,23.64
2018-05-07T08:43:26.585Z,23.60
2018-05-07T08:45:59.104Z,23.58
2018-05-07T08:48:31.608Z,24.07
2018-05-07T08:51:04.160Z,24.48
2018-05-07T08:53:36.657Z,24.39
2018-05-07T08:56:09.173Z,24.47
2018-05-07T08:58:41.757Z,24.68
2018-05-07T09:01:14.286Z,24.68
2018-05-07T09:03:46.811Z,24.88
2018-05-07T09:06:19.327Z,24.73
2018-05-07T09:08:51.824Z,24.95
2018-05-07T09:11:24.343Z,25.38
2018-05-07T09:13:56.848Z,25.54
2018-05-07T09:16:29.382Z,25.64
2018-05-07T09:19:01.882Z,25.79
2018-05-07T09:21:34.414Z,25.78
2018-05-07T09:24:06.994Z,25.70
2018-05-07T09:26:39.468Z,25.69
2018-05-07T09:29:11.971Z,25.84
2018-05-07T09:31:44.497Z,25.79
2018-05-07T09:34:17.820Z,25.67
2018-05-07T09:36:50.346Z,25.80
2018-05-07T09:39:22.847Z,25.57
2018-05-07T09:41:55.378Z,25.87
2018-05-07T09:44:27.872Z,25.86
2018-05-07T09:47:00.397Z,26.03
2018-05-07T09:49:32.907Z,26.03
2018-05-07T09:52:05.418Z,25.96
2018-05-07T09:54:37.924Z,26.09
2018-05-07T09:57:10.456Z,26.36
2018-05-07T09:59:42.956Z,26.13
2018-05-07T10:02:15.760Z,26.03
2018-05-07T10:04:48.260Z,25.44
2018-05-07T10:07:20.776Z,25.78
2018-05-07T10:09:53.299Z,25.97
2018-05-07T10:12:25.810Z,26.23
2018-05-07T10:14:58.315Z,26.57
2018-05-07T10:17:30.895Z,26.73
2018-05-07T10:20:03.412Z,26.61
2018-05-07T10:22:35.933Z,26.28
2018-05-07T10:25:08.434Z,26.27
2018-05-07T10:27:40.959Z,26.15
2018-05-07T10:30:13.478Z,26.04
2018-05-07T10:32:46.536Z,25.73
2018-05-07T10:35:19.048Z,26.21
2018-05-07T10:37:51.586Z,26.42
2018-05-07T10:40:24.091Z,26.35
2018-05-07T10:42:56.608Z,26.11
2018-05-07T10:45:29.109Z,26.37
2018-05-07T10:48:01.640Z,25.60
2018-05-07T10:50:34.139Z,26.34
2018-05-07T10:53:06.673Z,26.59
2018-05-07T10:55:39.180Z,25.43
2018-05-07T10:58:11.709Z,26.53
2018-05-07T11:00:44.211Z,26.87
2018-05-07T11:03:16.737Z,27.18
2018-05-07T11:05:49.245Z,27.06
2018-05-07T11:08:21.771Z,26.79
2018-05-07T11:10:54.280Z,26.87
2018-05-07T11:13:26.807Z,27.11
2018-05-07T11:15:59.303Z,26.71
2018-05-07T11:18:31.817Z,27.07
2018-05-07T11:21:04.317Z,27.21
2018-05-07T11:23:36.851Z,27.44
2018-05-07T11:26:09.347Z,27.08
2018-05-07T11:28:41.875Z,27.03
2018-05-07T11:31:14.545Z,27.17
2018-05-07T11:33:47.135Z,27.25
2018-05-07T11:36:19.670Z,27.39
2018-05-07T11:38:52.174Z,27.42
2018-05-07T11:41:24.698Z,27.58
2018-05-07T11:43:57.209Z,27.67
2018-05-07T11:46:29.737Z,27.38
2018-05-07T11:49:02.233Z,27.10
2018-05-07T11:51:34.755Z,27.09
2018-05-07T11:54:07.253Z,27.08
2018-05-07T11:56:39.769Z,28.25
2018-05-07T11:59:12.281Z,29.04
2018-05-07T12:01:44.825Z,29.31
2018-05-07T12:04:18.003Z,30.00
2018-05-07T12:06:50.528Z,30.12
2018-05-07T12:09:23.060Z,29.60
2018-05-07T12:11:55.577Z,29.76
2018-05-07T12:14:28.085Z,29.21
2018-05-07T12:17:00.599Z,29.27
2018-05-07T12:19:33.099Z,29.78
2018-05-07T12:22:05.621Z,29.66
2018-05-07T12:24:38.127Z,30.27
2018-05-07T12:27:10.653Z,31.22
2018-05-07T12:29:43.152Z,30.83
2018-05-07T12:32:15.784Z,30.95
2018-05-07T12:34:48.292Z,29.56
2018-05-07T12:37:20.805Z,30.40
2018-05-07T12:39:53.307Z,31.90
2018-05-07T12:42:25.828Z,32.36
2018-05-07T12:44:58.328Z,31.41
2018-05-07T12:47:30.843Z,30.93
2018-05-07T12:50:03.352Z,32.00
2018-05-07T12:52:35.942Z,32.11
2018-05-07T12:55:08.399Z,31.13
2018-05-07T12:57:40.943Z,30.28
2018-05-07T13:00:13.457Z,30.25
2018-05-07T13:02:46.757Z,29.90
2018-05-07T13:05:19.260Z,29.23
2018-05-07T13:07:51.789Z,29.19
2018-05-07T13:10:24.299Z,30.74
2018-05-07T13:12:56.888Z,31.24
2018-05-07T13:15:29.356Z,30.91
2018-05-07T13:18:01.899Z,30.53
2018-05-07T13:20:34.401Z,29.91
2018-05-07T13:23:06.928Z,29.65
2018-05-07T13:25:39.435Z,29.19
2018-05-07T13:28:11.961Z,29.25
2018-05-07T13:30:44.471Z,27.72
2018-05-07T13:33:17.799Z,28.68
2018-05-07T13:35:50.292Z,28.36
2018-05-07T13:38:22.816Z,28.04
2018-05-07T13:40:55.328Z,28.39
2018-05-07T13:43:27.863Z,28.10
2018-05-07T13:46:02.870Z,27.77
2018-05-07T13:48:35.889Z,27.75
2018-05-07T13:51:08.466Z,27.73
2018-05-07T13:53:40.924Z,27.14
2018-05-07T13:56:13.444Z,27.53
2018-05-07T13:58:46.805Z,27.44
2018-05-07T14:01:19.309Z,27.90
2018-05-07T14:03:51.832Z,27.66
2018-05-07T14:06:24.336Z,27.58
2018-05-07T14:08:57.164Z,27.96
2018-05-07T14:11:29.669Z,27.96
2018-05-07T14:14:02.198Z,27.34
2018-05-07T14:16:34.728Z,27.15
2018-05-07T14:19:07.253Z,27.21
2018-05-07T14:21:39.791Z,27.33
2018-05-07T14:24:12.360Z,27.24
2018-05-07T14:26:44.907Z,27.34
2018-05-07T14:29:18.186Z,27.09
2018-05-07T14:31:50.704Z,27.43
2018-05-07T14:34:23.275Z,27.24
2018-05-07T14:36:55.791Z,27.28
2018-05-07T14:39:28.409Z,27.19
2018-05-07T14:42:01.010Z,26.83
2018-05-07T14:44:33.565Z,26.77
2018-05-07T14:47:19.699Z,26.88
2018-05-07T14:49:52.739Z,26.96
2018-05-07T14:52:25.259Z,26.87
2018-05-07T14:54:57.768Z,26.72
2018-05-07T14:57:30.304Z,26.67
2018-05-07T15:00:02.808Z,26.87
2018-05-07T15:02:35.330Z,26.72
2018-05-07T15:05:07.837Z,26.76
2018-05-07T15:07:40.363Z,26.22
2018-05-07T15:10:12.917Z,26.28
2018-05-07T15:12:46.088Z,26.50
2018-05-07T15:15:18.599Z,26.56
2018-05-07T15:17:51.189Z,26.71
2018-05-07T15:20:23.694Z,26.56
2018-05-07T15:22:56.228Z,26.72
2018-05-07T15:25:28.732Z,26.61
2018-05-07T15:28:01.248Z,26.73
2018-05-07T15:30:33.761Z,26.78
2018-05-07T15:33:06.287Z,26.24
2018-05-07T15:35:38.791Z,26.58
2018-05-07T15:38:11.328Z,26.30
2018-05-07T15:40:43.837Z,26.47
2018-05-07T15:43:16.829Z,26.53
2018-05-07T15:45:49.322Z,26.80
2018-05-07T15:48:21.856Z,26.58
2018-05-07T15:50:54.363Z,26.50
2018-05-07T15:53:26.883Z,26.55
2018-05-07T15:55:59.429Z,26.75
2018-05-07T15:58:31.936Z,26.72
2018-05-07T16:01:04.450Z,26.71
2018-05-07T16:03:36.981Z,26.55
2018-05-07T16:06:09.547Z,26.38
2018-05-07T16:08:42.102Z,26.48
2018-05-07T16:11:14.599Z,26.73
2018-05-07T16:13:47.720Z,26.51
2018-05-07T16:16:20.290Z,26.75
2018-05-07T16:18:53.728Z,26.48
2018-05-07T16:21:26.394Z,26.50
2018-05-07T16:23:58.801Z,26.67
2018-05-07T16:26:31.340Z,26.62
2018-05-07T16:29:03.999Z,26.71
2018-05-07T16:31:37.340Z,26.70
2018-05-07T16:34:09.872Z,26.79
2018-05-07T16:36:42.400Z,26.65
2018-05-07T16:39:14.948Z,26.47
2018-05-07T16:41:48.175Z,26.51
2018-05-07T16:44:20.701Z,26.48
2018-05-07T16:46:53.235Z,26.63
2018-05-07T16:49:25.794Z,26.58
2018-05-07T16:51:58.458Z,26.78
2018-05-07T16:54:30.985Z,26.73
2018-05-07T16:57:03.494Z,26.83
2018-05-07T16:59:36.022Z,26.70
2018-05-07T17:02:08.516Z,26.80
2018-05-07T17:04:41.037Z,27.17
2018-05-07T17:07:13.602Z,27.39
2018-05-07T17:09:46.238Z,27.53
2018-05-07T17:12:18.767Z,27.57
2018-05-07T17:14:51.293Z,27.65
2018-05-07T17:17:23.792Z,27.55
2018-05-07T17:19:56.326Z,28.05
2018-05-07T17:22:28.915Z,28.50
2018-05-07T17:25:01.605Z,28.90
2018-05-07T17:27:34.147Z,29.04
2018-05-07T17:30:06.769Z,28.68
2018-05-07T17:32:39.196Z,28.88
2018-05-07T17:35:11.787Z,28.66
2018-05-07T17:37:44.324Z,28.46
2018-05-07T17:40:16.868Z,28.21
2018-05-07T17:42:49.399Z,28.11
2018-05-07T17:48:43.248Z,27.38
2018-05-07T17:51:15.859Z,27.37
2018-05-07T17:53:48.449Z,27.25
2018-05-07T17:56:21.261Z,27.17
2018-05-07T17:58:53.717Z,26.78
2018-05-07T18:01:26.317Z,26.59
2018-05-07T18:03:58.930Z,26.41
2018-05-07T18:06:31.554Z,26.25
2018-05-07T18:09:04.198Z,25.77
2018-05-07T18:11:36.790Z,25.59
2018-05-07T18:14:09.434Z,25.44
2018-05-07T18:16:42.074Z,25.31
2018-05-07T18:19:14.748Z,25.22
2018-05-07T18:21:47.264Z,25.05
2018-05-07T18:24:19.905Z,24.94
2018-05-07T18:26:52.492Z,24.79
2018-05-07T18:29:26.241Z,24.68
2018-05-07T18:31:58.840Z,24.59
2018-05-07T18:34:31.485Z,24.53
2018-05-07T18:37:04.273Z,24.45
2018-05-07T18:39:36.892Z,24.38
2018-05-07T18:42:09.484Z,24.27
2018-05-07T18:44:42.101Z,24.13
2018-05-07T18:47:14.712Z,24.00
2018-05-07T18:49:47.368Z,23.85
2018-05-07T18:52:19.957Z,23.74
2018-05-07T18:54:52.557Z,23.62
2018-05-07T18:57:25.133Z,23.44
2018-05-07T18:59:57.747Z,23.34
2018-05-07T19:02:30.375Z,23.24
2018-05-07T19:05:03.007Z,23.12
2018-05-07T19:07:35.582Z,22.97
2018-05-07T19:10:08.167Z,22.85
2018-05-07T19:12:40.790Z,22.72
2018-05-07T19:15:13.380Z,22.65
2018-05-07T19:17:46.043Z,22.57
2018-05-07T19:20:19.518Z,22.38
2018-05-07T19:22:52.091Z,22.29
2018-05-07T19:25:24.688Z,22.24
2018-05-07T19:27:57.275Z,22.10
2018-05-07T19:30:29.867Z,21.97
2018-05-07T19:33:02.458Z,21.89
2018-05-07T19:35:35.166Z,21.83
2018-05-07T19:38:07.746Z,21.73
2018-05-07T19:40:40.386Z,21.64
2018-05-07T19:43:12.938Z,21.59
2018-05-07T19:45:45.536Z,21.50
2018-05-07T19:48:18.111Z,21.41
2018-05-07T19:50:50.668Z,21.34
2018-05-07T19:53:23.358Z,21.26
2018-05-07T19:55:56.038Z,21.17
2018-05-07T19:58:28.625Z,21.09
2018-05-07T22:10:13.386Z,16.86
2018-05-07T22:12:45.969Z,16.76
2018-05-07T22:15:18.563Z,16.70
2018-05-07T22:17:51.134Z,16.68
2018-05-07T22:20:23.724Z,16.64
2018-05-07T22:22:56.287Z,16.62
2018-05-07T22:25:28.863Z,16.59
2018-05-07T22:28:01.418Z,16.55
2018-05-07T22:30:33.978Z,16.51
2018-05-07T22:33:06.572Z,16.50
2018-05-07T22:35:39.220Z,16.48
2018-05-07T22:38:11.839Z,16.43
2018-05-07T22:40:44.490Z,16.40
2018-05-07T22:43:17.098Z,16.36
2018-05-07T22:45:49.739Z,16.33
2018-05-07T22:48:22.337Z,16.30
2018-05-07T22:50:54.965Z,16.27
2018-05-07T22:53:27.578Z,16.20
2018-05-07T22:56:00.216Z,16.16
2018-05-07T22:58:32.840Z,16.11
2018-05-07T23:01:05.415Z,16.09
2018-05-07T23:03:37.982Z,16.05
2018-05-07T23:06:10.583Z,15.99
2018-05-07T23:08:43.175Z,15.96
2018-05-07T23:11:15.759Z,15.93
2018-05-07T23:13:48.310Z,15.87
2018-05-07T23:16:20.924Z,15.80
2018-05-07T23:18:53.512Z,15.77
2018-05-07T23:21:26.088Z,15.71
2018-05-07T23:23:58.674Z,15.66
2018-05-07T23:26:31.256Z,15.62
2018-05-07T23:29:03.833Z,15.58
2018-05-07T23:31:36.452Z,15.54
2018-05-07T23:34:09.008Z,15.48
2018-05-07T23:36:41.582Z,15.47
2018-05-07T23:39:14.160Z,15.44
2018-05-07T23:41:46.741Z,15.41
2018-05-07T23:44:19.322Z,15.34
2018-05-07T23:46:51.906Z,15.32
2018-05-07T23:49:24.493Z,15.25
2018-05-07T23:51:57.083Z,15.21
2018-05-07T23:54:29.655Z,15.19
2018-05-07T23:57:02.237Z,15.14
2018-05-07T23:59:34.795Z,15.10
